createdAt,value
2022-10-30T00:01:31.577Z,21.48
2022-10-30T00:04:43.406Z,21.98
2022-10-30T00:07:55.793Z,22.55
2022-10-30T00:11:15.695Z,22.35
2022-10-30T00:14:27.488Z,21.70
2022-10-30T00:17:39.274Z,23.30
2022-10-30T00:20:51.120Z,22.78
2022-10-30T00:24:03.037Z,23.88
2022-10-30T00:27:14.878Z,22.30
2022-10-30T00:30:26.730Z,23.33
2022-10-30T00:33:41.286Z,23.88
2022-10-30T00:36:52.925Z,22.90
2022-10-30T00:40:04.734Z,23.10
2022-10-30T00:43:39.220Z,23.50
2022-10-30T00:46:51.603Z,23.85
2022-10-30T00:50:09.929Z,23.68
2022-10-30T00:53:25.182Z,24.15
2022-10-30T00:56:37.723Z,23.28
2022-10-30T00:59:50.013Z,22.85
2022-10-30T01:03:03.635Z,23.45
2022-10-30T01:06:20.108Z,25.23
2022-10-30T01:09:32.425Z,25.55
2022-10-30T01:12:45.900Z,24.08
2022-10-30T01:16:08.717Z,24.38
2022-10-30T01:19:29.964Z,24.73
2022-10-30T01:22:53.855Z,25.23
2022-10-30T01:26:14.182Z,23.40
2022-10-30T01:29:42.980Z,24.18
2022-10-30T01:33:07.214Z,23.70
2022-10-30T01:36:24.600Z,22.05
2022-10-30T01:39:41.015Z,23.33
2022-10-30T01:42:56.922Z,22.38
2022-10-30T01:46:34.114Z,21.95
2022-10-30T01:50:21.771Z,22.08
2022-10-30T01:53:44.986Z,22.30
2022-10-30T01:57:06.067Z,21.43
2022-10-30T02:00:21.828Z,21.40
2022-10-30T02:03:34.476Z,21.08
2022-10-30T02:06:47.289Z,21.25
2022-10-30T02:10:00.565Z,22.13
2022-10-30T02:13:13.083Z,22.10
2022-10-30T02:16:27.481Z,23.05
2022-10-30T02:19:39.311Z,23.15
2022-10-30T02:22:56.050Z,22.95
2022-10-30T02:26:05.690Z,24.28
2022-10-30T02:29:21.815Z,23.10
2022-10-30T02:32:35.836Z,22.83
2022-10-30T02:35:48.028Z,22.45
2022-10-30T02:39:00.111Z,23.55
2022-10-30T02:42:12.473Z,24.40
2022-10-30T02:45:24.936Z,22.83
2022-10-30T02:48:37.390Z,22.88
2022-10-30T02:51:49.185Z,22.40
2022-10-30T02:55:00.837Z,22.48
2022-10-30T02:58:13.467Z,24.30
2022-10-30T03:01:26.611Z,24.73
2022-10-30T03:04:40.960Z,24.05
2022-10-30T03:07:52.811Z,23.20
2022-10-30T03:11:10.684Z,24.65
2022-10-30T03:14:22.670Z,25.20
2022-10-30T03:17:34.663Z,26.05
2022-10-30T03:20:46.377Z,26.03
2022-10-30T03:23:59.267Z,26.35
2022-10-30T03:27:12.240Z,25.90
2022-10-30T03:30:24.926Z,26.13
2022-10-30T03:33:38.704Z,25.80
2022-10-30T03:36:50.588Z,25.40
2022-10-30T03:40:02.420Z,24.35
2022-10-30T03:43:15.175Z,23.53
2022-10-30T03:46:27.031Z,24.40
2022-10-30T03:49:40.599Z,24.98
2022-10-30T03:52:54.164Z,23.13
2022-10-30T03:56:08.671Z,23.53
2022-10-30T03:59:22.276Z,23.40
2022-10-30T04:02:42.087Z,23.02
2022-10-30T04:05:54.834Z,24.25
2022-10-30T04:09:06.883Z,24.20
2022-10-30T04:12:20.749Z,23.40
2022-10-30T04:15:34.520Z,23.23
2022-10-30T04:18:46.508Z,24.00
2022-10-30T04:21:58.514Z,24.20
2022-10-30T04:25:11.933Z,24.18
2022-10-30T04:28:25.068Z,23.55
2022-10-30T04:31:36.808Z,23.48
2022-10-30T04:34:49.848Z,24.45
2022-10-30T04:38:03.440Z,24.00
2022-10-30T04:41:16.624Z,23.58
2022-10-30T04:44:33.416Z,24.25
2022-10-30T04:47:45.307Z,24.98
2022-10-30T04:50:57.109Z,25.10
2022-10-30T04:54:10.531Z,25.03
2022-10-30T04:57:22.677Z,24.68
2022-10-30T05:00:36.610Z,25.78
2022-10-30T05:03:53.703Z,25.65
2022-10-30T05:07:04.202Z,25.70
2022-10-30T05:10:19.848Z,24.98
2022-10-30T05:13:32.207Z,25.55
2022-10-30T05:16:44.341Z,24.90
2022-10-30T05:19:56.702Z,25.15
2022-10-30T05:23:08.576Z,24.93
2022-10-30T05:26:21.441Z,23.78
2022-10-30T05:29:33.344Z,24.58
2022-10-30T05:32:45.192Z,23.93
2022-10-30T05:35:57.213Z,22.65
2022-10-30T05:39:09.100Z,24.38
2022-10-30T05:42:22.943Z,23.83
2022-10-30T05:45:34.889Z,23.55
2022-10-30T05:48:47.346Z,25.50
2022-10-30T05:51:59.177Z,23.53
2022-10-30T05:55:14.329Z,23.35
2022-10-30T05:58:40.409Z,24.05
2022-10-30T06:01:52.911Z,24.23
2022-10-30T06:05:04.658Z,22.30
2022-10-30T06:08:17.172Z,21.85
2022-10-30T06:11:30.607Z,23.40
2022-10-30T06:14:44.200Z,22.05
2022-10-30T06:17:56.868Z,21.50
2022-10-30T06:21:11.528Z,21.68
2022-10-30T06:24:25.263Z,20.60
2022-10-30T06:27:41.745Z,19.38
2022-10-30T06:30:53.966Z,19.88
2022-10-30T06:34:06.638Z,20.60
2022-10-30T06:37:20.881Z,20.63
2022-10-30T06:40:33.949Z,20.60
2022-10-30T06:44:07.241Z,20.30
2022-10-30T06:47:21.556Z,20.85
2022-10-30T06:50:33.649Z,22.65
2022-10-30T06:53:45.892Z,20.55
2022-10-30T06:57:11.890Z,19.53
2022-10-30T07:00:29.180Z,19.15
2022-10-30T07:03:49.653Z,19.03
2022-10-30T07:07:01.687Z,18.95
2022-10-30T07:10:15.942Z,19.10
2022-10-30T07:13:31.565Z,18.58
2022-10-30T07:16:51.785Z,19.13
2022-10-30T07:20:03.983Z,17.70
2022-10-30T07:23:16.171Z,16.35
2022-10-30T07:26:29.547Z,17.70
2022-10-30T07:29:43.440Z,17.15
2022-10-30T07:33:07.509Z,18.35
2022-10-30T07:36:24.108Z,16.93
2022-10-30T07:39:38.046Z,16.03
2022-10-30T07:42:51.702Z,17.05
2022-10-30T07:46:11.986Z,15.93
2022-10-30T07:49:39.599Z,16.98
2022-10-30T07:52:54.426Z,16.43
2022-10-30T07:56:08.275Z,15.85
2022-10-30T07:59:50.921Z,14.83
2022-10-30T08:03:21.916Z,15.10
2022-10-30T08:06:38.364Z,14.80
2022-10-30T08:09:50.457Z,14.88
2022-10-30T08:13:03.618Z,14.40
2022-10-30T08:16:18.257Z,15.10
2022-10-30T08:19:30.289Z,14.10
2022-10-30T08:22:52.481Z,13.85
2022-10-30T08:26:06.924Z,14.05
2022-10-30T08:29:20.968Z,13.25
2022-10-30T08:32:33.388Z,12.98
2022-10-30T08:35:59.761Z,12.93
2022-10-30T08:39:11.995Z,13.90
2022-10-30T08:42:29.145Z,13.25
2022-10-30T08:45:42.407Z,12.58
2022-10-30T08:48:56.732Z,12.78
2022-10-30T08:52:10.806Z,12.85
2022-10-30T08:55:24.142Z,12.38
2022-10-30T08:58:36.190Z,12.80
2022-10-30T09:01:50.481Z,12.08
2022-10-30T09:08:35.045Z,9.43
2022-10-30T09:11:58.540Z,9.75
2022-10-30T09:15:13.068Z,9.63
2022-10-30T09:18:27.359Z,10.63
2022-10-30T09:21:41.489Z,9.75
2022-10-30T09:33:08.747Z,10.48
2022-10-30T09:56:46.817Z,9.28
2022-10-30T10:04:47.896Z,10.03
2022-10-30T10:08:04.916Z,8.83
2022-10-30T10:19:07.220Z,22.08
2022-10-30T10:27:17.511Z,8.50
2022-10-30T10:35:24.754Z,8.68
2022-10-30T10:49:25.247Z,12.17
2022-10-30T10:52:44.025Z,8.63
2022-10-30T10:56:01.701Z,7.00
2022-10-30T10:59:20.732Z,13.93
2022-10-30T11:02:47.743Z,9.30
2022-10-30T11:06:04.421Z,8.15
2022-10-30T11:09:23.827Z,6.90
2022-10-30T11:12:40.143Z,6.98
2022-10-30T11:16:01.200Z,9.08
2022-10-30T11:19:15.395Z,8.48
2022-10-30T11:22:33.744Z,5.85
2022-10-30T11:25:45.634Z,6.58
2022-10-30T11:29:00.764Z,6.73
2022-10-30T11:32:16.120Z,5.63
2022-10-30T11:35:28.841Z,6.60
2022-10-30T11:38:40.616Z,6.50
2022-10-30T11:42:02.515Z,6.00
2022-10-30T11:45:21.999Z,6.83
2022-10-30T11:48:38.321Z,7.05
2022-10-30T11:51:52.287Z,7.13
2022-10-30T11:55:09.449Z,7.28
2022-10-30T11:58:46.786Z,6.45
2022-10-30T12:02:27.085Z,6.95
2022-10-30T12:06:02.186Z,7.65
2022-10-30T12:09:21.518Z,8.98
2022-10-30T12:12:41.153Z,6.70
2022-10-30T12:15:58.278Z,6.30
2022-10-30T12:19:30.395Z,6.95
2022-10-30T12:22:42.608Z,7.15
2022-10-30T12:25:58.317Z,9.63
2022-10-30T12:29:17.911Z,6.73
2022-10-30T12:32:38.629Z,6.88
2022-10-30T12:35:55.525Z,6.90
2022-10-30T12:39:13.664Z,6.48
2022-10-30T12:42:26.558Z,6.30
2022-10-30T12:45:44.525Z,6.95
2022-10-30T12:48:59.646Z,7.85
2022-10-30T12:52:17.677Z,6.80
2022-10-30T12:55:35.778Z,11.70
2022-10-30T12:58:54.222Z,11.33
2022-10-30T13:02:15.883Z,8.85
2022-10-30T13:05:39.146Z,7.40
2022-10-30T13:08:59.815Z,6.78
2022-10-30T13:12:16.994Z,8.10
2022-10-30T13:15:34.043Z,7.88
2022-10-30T13:18:45.820Z,7.75
2022-10-30T13:22:04.370Z,8.23
2022-10-30T13:25:23.812Z,7.83
2022-10-30T13:28:42.104Z,6.73
2022-10-30T13:32:06.190Z,6.70
2022-10-30T13:35:30.742Z,9.33
2022-10-30T13:38:50.921Z,14.38
2022-10-30T13:42:19.010Z,8.10
2022-10-30T13:46:04.342Z,7.90
2022-10-30T13:49:30.192Z,13.55
2022-10-30T13:52:47.301Z,8.58
2022-10-30T13:56:01.341Z,7.50
2022-10-30T13:59:50.037Z,8.25
2022-10-30T14:03:43.346Z,7.98
2022-10-30T14:07:00.757Z,7.55
2022-10-30T14:10:18.026Z,7.13
2022-10-30T14:13:36.560Z,11.48
2022-10-30T14:16:51.445Z,6.63
2022-10-30T14:20:33.695Z,6.60
2022-10-30T14:23:45.921Z,5.88
2022-10-30T14:27:02.841Z,6.18
2022-10-30T14:30:25.832Z,6.75
2022-10-30T14:33:51.271Z,7.05
2022-10-30T14:37:03.339Z,9.13
2022-10-30T14:40:49.407Z,8.95
2022-10-30T14:44:44.265Z,9.88
2022-10-30T14:48:02.726Z,15.93
2022-10-30T14:51:22.855Z,19.73
2022-10-30T14:54:41.570Z,8.60
2022-10-30T14:57:57.720Z,6.93
2022-10-30T15:01:41.490Z,10.13
2022-10-30T15:05:15.220Z,9.08
2022-10-30T15:08:56.139Z,7.23
2022-10-30T15:15:39.452Z,5.58
2022-10-30T15:18:55.838Z,6.98
2022-10-30T15:22:07.811Z,6.48
2022-10-30T15:25:26.079Z,9.38
2022-10-30T15:28:40.516Z,8.80
2022-10-30T15:32:03.120Z,8.10
2022-10-30T15:35:24.493Z,7.65
2022-10-30T15:38:36.594Z,7.20
2022-10-30T15:41:53.875Z,6.60
2022-10-30T15:45:05.965Z,8.08
2022-10-30T15:48:26.895Z,7.90
2022-10-30T15:51:41.546Z,7.63
2022-10-30T15:54:58.383Z,7.98
2022-10-30T15:58:13.220Z,7.38
2022-10-30T16:01:38.576Z,7.70
2022-10-30T16:04:51.250Z,7.00
2022-10-30T16:08:06.542Z,7.15
2022-10-30T16:11:21.009Z,7.40
2022-10-30T16:14:36.905Z,6.83
2022-10-30T16:17:53.073Z,6.95
2022-10-30T16:21:07.335Z,7.30
2022-10-30T16:24:21.615Z,7.83
2022-10-30T16:27:33.613Z,7.73
2022-10-30T16:30:46.962Z,7.80
2022-10-30T16:34:00.267Z,7.88
2022-10-30T16:37:17.409Z,8.20
2022-10-30T16:43:44.054Z,7.90
2022-10-30T16:46:58.882Z,7.83
2022-10-30T16:50:15.053Z,8.05
2022-10-30T16:53:30.590Z,8.88
2022-10-30T16:56:45.597Z,8.83
2022-10-30T16:59:58.906Z,7.65
2022-10-30T17:03:15.328Z,8.28
2022-10-30T17:06:44.877Z,8.43
2022-10-30T17:09:59.260Z,7.58
2022-10-30T17:13:37.933Z,8.28
2022-10-30T17:17:00.144Z,8.28
2022-10-30T17:20:31.571Z,8.48
2022-10-30T17:23:49.903Z,8.65
2022-10-30T17:27:05.869Z,9.20
2022-10-30T17:30:48.501Z,9.20
2022-10-30T17:34:23.933Z,9.85
2022-10-30T17:37:36.234Z,9.48
2022-10-30T17:40:48.048Z,9.78
2022-10-30T17:44:02.486Z,9.58
2022-10-30T17:47:23.743Z,8.75
2022-10-30T17:50:35.627Z,9.65
2022-10-30T17:53:48.293Z,8.63
2022-10-30T17:57:01.041Z,8.70
2022-10-30T18:00:17.111Z,8.85
2022-10-30T18:03:29.362Z,8.78
2022-10-30T18:06:41.465Z,8.95
2022-10-30T18:09:53.980Z,9.93
2022-10-30T18:13:06.592Z,9.00
2022-10-30T18:16:20.469Z,8.80
2022-10-30T18:19:32.745Z,8.40
2022-10-30T18:22:44.958Z,9.93
2022-10-30T18:25:57.520Z,10.48
2022-10-30T18:29:09.772Z,8.98
2022-10-30T18:32:22.420Z,8.83
2022-10-30T18:35:39.702Z,9.18
2022-10-30T18:38:52.860Z,10.93
2022-10-30T18:42:05.118Z,9.68
2022-10-30T18:45:30.130Z,9.45
2022-10-30T18:48:42.357Z,8.93
2022-10-30T18:51:56.000Z,10.25
2022-10-30T18:55:09.883Z,11.85
2022-10-30T18:58:21.859Z,11.25
2022-10-30T19:01:35.025Z,15.15
2022-10-30T19:04:47.288Z,12.75
2022-10-30T19:07:59.963Z,12.80
2022-10-30T19:11:13.869Z,10.80
2022-10-30T19:14:26.017Z,10.45
2022-10-30T19:17:38.079Z,10.58
2022-10-30T19:21:04.045Z,10.90
2022-10-30T19:24:07.277Z,9.20
2022-10-30T19:27:21.182Z,10.48
2022-10-30T19:30:33.664Z,9.70
2022-10-30T19:33:45.927Z,9.53
2022-10-30T19:36:58.287Z,10.68
2022-10-30T19:40:37.656Z,9.88
2022-10-30T19:43:49.775Z,10.93
2022-10-30T19:47:01.815Z,12.25
2022-10-30T19:50:29.526Z,10.78
2022-10-30T19:53:41.439Z,10.38
2022-10-30T19:56:53.211Z,11.28
2022-10-30T20:00:05.231Z,11.63
2022-10-30T20:03:19.495Z,11.75
2022-10-30T20:06:31.289Z,12.63
2022-10-30T20:09:43.075Z,12.03
2022-10-30T20:12:56.946Z,11.70
2022-10-30T20:16:10.141Z,12.68
2022-10-30T20:19:33.590Z,12.55
2022-10-30T20:22:45.824Z,12.33
2022-10-30T20:26:02.030Z,12.75
2022-10-30T20:29:14.241Z,11.45
2022-10-30T20:32:26.206Z,12.78
2022-10-30T20:35:38.042Z,11.58
2022-10-30T20:38:50.012Z,12.45
2022-10-30T20:42:02.055Z,12.08
2022-10-30T20:45:21.385Z,12.50
2022-10-30T20:48:33.920Z,10.55
2022-10-30T20:51:45.964Z,12.15
2022-10-30T20:54:57.962Z,11.65
2022-10-30T20:58:10.357Z,12.98
2022-10-30T21:01:22.484Z,12.30
2022-10-30T21:04:34.514Z,11.53
2022-10-30T21:07:46.566Z,12.15
2022-10-30T21:10:58.553Z,12.40
2022-10-30T21:14:10.321Z,12.50
2022-10-30T21:17:22.115Z,11.65
2022-10-30T21:20:34.163Z,11.20
2022-10-30T21:23:46.072Z,11.93
2022-10-30T21:26:58.159Z,12.50
2022-10-30T21:30:12.175Z,23.75
2022-10-30T21:33:24.118Z,20.20
2022-10-30T21:36:35.919Z,15.03
2022-10-30T21:39:47.605Z,13.50
2022-10-30T21:43:03.040Z,14.15
2022-10-30T21:46:15.564Z,12.93
2022-10-30T21:49:30.122Z,12.80
2022-10-30T21:52:41.945Z,12.68
2022-10-30T21:55:53.698Z,13.08
2022-10-30T21:59:06.804Z,15.85
2022-10-30T22:02:21.857Z,16.48
2022-10-30T22:05:35.716Z,17.10
2022-10-30T22:08:50.423Z,20.68
2022-10-30T22:12:02.493Z,17.48
2022-10-30T22:15:16.371Z,19.00
2022-10-30T22:18:29.399Z,18.20
2022-10-30T22:21:41.187Z,22.15
2022-10-30T22:24:53.082Z,24.50
2022-10-30T22:28:04.944Z,26.43
2022-10-30T22:31:19.878Z,26.73
2022-10-30T22:34:31.653Z,26.78
2022-10-30T22:37:43.275Z,19.63
2022-10-30T22:40:54.880Z,24.20
2022-10-30T22:44:10.639Z,26.63
2022-10-30T22:47:22.337Z,25.58
2022-10-30T22:50:33.964Z,29.18
2022-10-30T22:53:46.286Z,27.93
2022-10-30T22:57:00.569Z,29.25
2022-10-30T23:00:19.147Z,29.00
2022-10-30T23:03:30.132Z,30.08
2022-10-30T23:06:42.412Z,31.85
2022-10-30T23:09:54.163Z,32.13
2022-10-30T23:13:05.815Z,31.85
2022-10-30T23:16:22.437Z,31.65
2022-10-30T23:19:35.287Z,30.00
2022-10-30T23:22:47.077Z,30.45
2022-10-30T23:25:58.856Z,30.68
2022-10-30T23:29:11.416Z,31.03
2022-10-30T23:32:23.149Z,29.40
2022-10-30T23:35:34.781Z,30.20
2022-10-30T23:38:46.570Z,29.58
2022-10-30T23:41:58.333Z,29.93
2022-10-30T23:45:11.177Z,31.48
2022-10-30T23:48:23.016Z,29.38
2022-10-30T23:51:34.789Z,28.45
2022-10-30T23:54:46.888Z,28.80
2022-10-30T23:57:59.020Z,29.43
